sensor_id;sensor_type;location;lat;lon;timestamp;temperature;humidity
21037;DHT22;10677;50.942;4.028;2023-02-08T00:00:59;1.10;99.90
21037;DHT22;10677;50.942;4.028;2023-02-08T00:03:25;1.20;99.90
21037;DHT22;10677;50.942;4.028;2023-02-08T00:05:53;1.20;99.90
21037;DHT22;10677;50.942;4.028;2023-02-08T00:08:18;1.10;99.90
21037;DHT22;10677;50.942;4.028;2023-02-08T00:10:44;1.00;99.90
21037;DHT22;10677;50.942;4.028;2023-02-08T00:13:10;1.00;99.90
21037;DHT22;10677;50.942;4.028;2023-02-08T00:15:41;0.90;99.90
21037;DHT22;10677;50.942;4.028;2023-02-08T00:18:06;0.80;99.90
21037;DHT22;10677;50.942;4.028;2023-02-08T00:20:32;0.70;99.90
21037;DHT22;10677;50.942;4.028;2023-02-08T00:22:58;0.70;99.90
21037;DHT22;10677;50.942;4.028;2023-02-08T00:25:23;0.60;99.90
21037;DHT22;10677;50.942;4.028;2023-02-08T00:27:49;0.60;99.90
21037;DHT22;10677;50.942;4.028;2023-02-08T00:30:14;0.60;99.90
21037;DHT22;10677;50.942;4.028;2023-02-08T00:32:40;0.60;99.90
21037;DHT22;10677;50.942;4.028;2023-02-08T00:35:06;0.70;99.90
21037;DHT22;10677;50.942;4.028;2023-02-08T00:37:32;0.60;99.90
21037;DHT22;10677;50.942;4.028;2023-02-08T00:39:57;0.70;99.90
21037;DHT22;10677;50.942;4.028;2023-02-08T00:42:25;0.70;99.90
21037;DHT22;10677;50.942;4.028;2023-02-08T00:44:51;0.80;99.90
21037;DHT22;10677;50.942;4.028;2023-02-08T00:47:17;0.80;99.90
21037;DHT22;10677;50.942;4.028;2023-02-08T00:49:43;0.90;99.90
21037;DHT22;10677;50.942;4.028;2023-02-08T00:52:08;0.70;99.90
21037;DHT22;10677;50.942;4.028;2023-02-08T00:54:34;0.70;99.90
21037;DHT22;10677;50.942;4.028;2023-02-08T00:57:00;0.80;99.90
21037;DHT22;10677;50.942;4.028;2023-02-08T00:59:25;0.80;99.90
21037;DHT22;10677;50.942;4.028;2023-02-08T01:01:52;0.90;99.90
21037;DHT22;10677;50.942;4.028;2023-02-08T01:04:17;0.90;99.90
21037;DHT22;10677;50.942;4.028;2023-02-08T01:06:43;0.90;99.90
21037;DHT22;10677;50.942;4.028;2023-02-08T01:09:09;0.90;99.90
21037;DHT22;10677;50.942;4.028;2023-02-08T01:11:34;0.90;99.90
21037;DHT22;10677;50.942;4.028;2023-02-08T01:14:00;0.90;99.90
21037;DHT22;10677;50.942;4.028;2023-02-08T01:16:29;0.90;99.90
21037;DHT22;10677;50.942;4.028;2023-02-08T01:18:56;0.90;99.90
21037;DHT22;10677;50.942;4.028;2023-02-08T01:21:33;1.00;99.90
21037;DHT22;10677;50.942;4.028;2023-02-08T01:24:01;0.90;99.90
21037;DHT22;10677;50.942;4.028;2023-02-08T01:26:27;0.90;99.90
21037;DHT22;10677;50.942;4.028;2023-02-08T01:28:53;1.00;99.90
21037;DHT22;10677;50.942;4.028;2023-02-08T01:31:22;1.00;99.90
21037;DHT22;10677;50.942;4.028;2023-02-08T01:33:48;1.00;99.90
21037;DHT22;10677;50.942;4.028;2023-02-08T01:36:14;0.90;99.90
21037;DHT22;10677;50.942;4.028;2023-02-08T01:38:42;0.80;99.90
21037;DHT22;10677;50.942;4.028;2023-02-08T01:41:16;0.80;99.90
21037;DHT22;10677;50.942;4.028;2023-02-08T01:46:48;0.70;99.90
21037;DHT22;10677;50.942;4.028;2023-02-08T01:49:26;0.70;99.90
21037;DHT22;10677;50.942;4.028;2023-02-08T01:52:02;0.70;99.90
21037;DHT22;10677;50.942;4.028;2023-02-08T01:54:35;0.60;99.90
21037;DHT22;10677;50.942;4.028;2023-02-08T01:57:02;0.60;99.90
21037;DHT22;10677;50.942;4.028;2023-02-08T01:59:39;0.60;99.90
21037;DHT22;10677;50.942;4.028;2023-02-08T02:02:10;0.50;99.90
21037;DHT22;10677;50.942;4.028;2023-02-08T02:04:36;0.70;99.90
21037;DHT22;10677;50.942;4.028;2023-02-08T02:07:03;0.70;99.90
21037;DHT22;10677;50.942;4.028;2023-02-08T02:09:46;0.70;99.90
21037;DHT22;10677;50.942;4.028;2023-02-08T02:12:14;0.60;99.90
21037;DHT22;10677;50.942;4.028;2023-02-08T02:14:41;0.60;99.90
21037;DHT22;10677;50.942;4.028;2023-02-08T02:17:10;0.60;99.90
21037;DHT22;10677;50.942;4.028;2023-02-08T02:20:05;0.60;99.90
21037;DHT22;10677;50.942;4.028;2023-02-08T02:31:48;0.50;99.90
21037;DHT22;10677;50.942;4.028;2023-02-08T02:34:27;0.50;99.90
21037;DHT22;10677;50.942;4.028;2023-02-08T02:45:44;0.70;99.90
21037;DHT22;10677;50.942;4.028;2023-02-08T02:50:54;0.70;99.90
21037;DHT22;10677;50.942;4.028;2023-02-08T02:54:02;0.70;99.90
21037;DHT22;10677;50.942;4.028;2023-02-08T02:56:37;0.60;99.90
21037;DHT22;10677;50.942;4.028;2023-02-08T02:59:05;0.90;99.90
21037;DHT22;10677;50.942;4.028;2023-02-08T03:01:33;0.70;99.90
21037;DHT22;10677;50.942;4.028;2023-02-08T03:03:59;0.70;99.90
21037;DHT22;10677;50.942;4.028;2023-02-08T03:06:37;0.70;99.90
21037;DHT22;10677;50.942;4.028;2023-02-08T03:20:13;0.40;99.90
21037;DHT22;10677;50.942;4.028;2023-02-08T03:25:23;0.40;99.90
21037;DHT22;10677;50.942;4.028;2023-02-08T03:31:14;0.30;99.90
21037;DHT22;10677;50.942;4.028;2023-02-08T03:34:07;0.30;99.90
21037;DHT22;10677;50.942;4.028;2023-02-08T03:36:41;0.20;99.90
21037;DHT22;10677;50.942;4.028;2023-02-08T03:39:12;0.20;99.90
21037;DHT22;10677;50.942;4.028;2023-02-08T03:41:42;0.30;99.90
21037;DHT22;10677;50.942;4.028;2023-02-08T03:44:12;0.30;99.90
21037;DHT22;10677;50.942;4.028;2023-02-08T03:46:48;0.20;99.90
21037;DHT22;10677;50.942;4.028;2023-02-08T03:49:22;0.20;99.90
21037;DHT22;10677;50.942;4.028;2023-02-08T03:51:49;0.10;99.90
21037;DHT22;10677;50.942;4.028;2023-02-08T03:54:19;0.10;99.90
21037;DHT22;10677;50.942;4.028;2023-02-08T03:59:33;0.20;99.90
21037;DHT22;10677;50.942;4.028;2023-02-08T04:02:02;0.20;99.90
21037;DHT22;10677;50.942;4.028;2023-02-08T04:04:33;0.20;99.90
21037;DHT22;10677;50.942;4.028;2023-02-08T04:06:59;0.20;99.90
21037;DHT22;10677;50.942;4.028;2023-02-08T04:09:25;0.20;99.90
21037;DHT22;10677;50.942;4.028;2023-02-08T04:11:51;0.20;99.90
21037;DHT22;10677;50.942;4.028;2023-02-08T04:14:16;0.10;99.90
21037;DHT22;10677;50.942;4.028;2023-02-08T04:16:42;0.00;99.90
21037;DHT22;10677;50.942;4.028;2023-02-08T04:19:08;0.00;99.90
21037;DHT22;10677;50.942;4.028;2023-02-08T04:21:33;0.00;99.90
21037;DHT22;10677;50.942;4.028;2023-02-08T04:23:59;0.00;99.90
21037;DHT22;10677;50.942;4.028;2023-02-08T04:26:25;0.00;99.90
21037;DHT22;10677;50.942;4.028;2023-02-08T04:28:51;0.10;99.90
21037;DHT22;10677;50.942;4.028;2023-02-08T04:31:16;0.10;99.90
21037;DHT22;10677;50.942;4.028;2023-02-08T04:33:42;0.00;99.90
21037;DHT22;10677;50.942;4.028;2023-02-08T04:36:08;-0.10;99.90
21037;DHT22;10677;50.942;4.028;2023-02-08T04:38:34;-0.10;99.90
21037;DHT22;10677;50.942;4.028;2023-02-08T04:41:00;-0.10;99.90
21037;DHT22;10677;50.942;4.028;2023-02-08T04:43:25;-0.10;99.90
21037;DHT22;10677;50.942;4.028;2023-02-08T04:45:51;-0.10;99.90
21037;DHT22;10677;50.942;4.028;2023-02-08T04:48:17;-0.10;99.90
21037;DHT22;10677;50.942;4.028;2023-02-08T04:50:43;0.00;99.90
21037;DHT22;10677;50.942;4.028;2023-02-08T04:53:09;0.00;99.90
21037;DHT22;10677;50.942;4.028;2023-02-08T04:55:35;-0.10;99.90
21037;DHT22;10677;50.942;4.028;2023-02-08T04:58:01;-0.10;99.90
21037;DHT22;10677;50.942;4.028;2023-02-08T05:00:27;-0.20;99.90
21037;DHT22;10677;50.942;4.028;2023-02-08T05:02:54;-0.20;99.90
21037;DHT22;10677;50.942;4.028;2023-02-08T05:05:20;-0.10;99.90
21037;DHT22;10677;50.942;4.028;2023-02-08T05:07:45;-0.10;99.90
21037;DHT22;10677;50.942;4.028;2023-02-08T05:10:11;-0.10;99.90
21037;DHT22;10677;50.942;4.028;2023-02-08T05:12:37;-0.10;99.90
21037;DHT22;10677;50.942;4.028;2023-02-08T05:15:03;0.00;99.90
21037;DHT22;10677;50.942;4.028;2023-02-08T05:17:29;0.00;99.90
21037;DHT22;10677;50.942;4.028;2023-02-08T05:19:55;0.00;99.90
21037;DHT22;10677;50.942;4.028;2023-02-08T05:22:21;-0.10;99.90
21037;DHT22;10677;50.942;4.028;2023-02-08T05:24:46;0.00;99.90
21037;DHT22;10677;50.942;4.028;2023-02-08T05:27:12;0.10;99.90
21037;DHT22;10677;50.942;4.028;2023-02-08T05:29:37;0.10;99.90
21037;DHT22;10677;50.942;4.028;2023-02-08T05:32:03;0.00;99.90
21037;DHT22;10677;50.942;4.028;2023-02-08T05:34:29;0.00;99.90
21037;DHT22;10677;50.942;4.028;2023-02-08T05:36:54;0.00;99.90
21037;DHT22;10677;50.942;4.028;2023-02-08T05:39:20;-0.20;99.90
21037;DHT22;10677;50.942;4.028;2023-02-08T05:41:46;-0.20;99.90
21037;DHT22;10677;50.942;4.028;2023-02-08T05:44:11;-0.20;99.90
21037;DHT22;10677;50.942;4.028;2023-02-08T05:46:37;-0.10;99.90
21037;DHT22;10677;50.942;4.028;2023-02-08T05:49:03;-0.10;99.90
21037;DHT22;10677;50.942;4.028;2023-02-08T05:51:28;-0.10;99.90
21037;DHT22;10677;50.942;4.028;2023-02-08T05:53:54;-0.20;99.90
21037;DHT22;10677;50.942;4.028;2023-02-08T05:56:20;-0.10;99.90
21037;DHT22;10677;50.942;4.028;2023-02-08T05:58:45;-0.20;99.90
21037;DHT22;10677;50.942;4.028;2023-02-08T06:01:12;-0.20;99.90
21037;DHT22;10677;50.942;4.028;2023-02-08T06:03:38;-0.10;99.90
21037;DHT22;10677;50.942;4.028;2023-02-08T06:06:05;-0.10;99.90
21037;DHT22;10677;50.942;4.028;2023-02-08T06:08:31;-0.10;99.90
21037;DHT22;10677;50.942;4.028;2023-02-08T06:10:56;-0.10;99.90
21037;DHT22;10677;50.942;4.028;2023-02-08T06:13:22;-0.10;99.90
21037;DHT22;10677;50.942;4.028;2023-02-08T06:15:48;0.00;99.90
21037;DHT22;10677;50.942;4.028;2023-02-08T06:18:14;-0.10;99.90
21037;DHT22;10677;50.942;4.028;2023-02-08T06:20:40;-0.10;99.90
21037;DHT22;10677;50.942;4.028;2023-02-08T06:23:05;-0.10;99.90
21037;DHT22;10677;50.942;4.028;2023-02-08T06:25:31;-0.10;99.90
21037;DHT22;10677;50.942;4.028;2023-02-08T06:27:57;-0.20;99.90
21037;DHT22;10677;50.942;4.028;2023-02-08T06:30:22;-0.20;99.90
21037;DHT22;10677;50.942;4.028;2023-02-08T06:32:48;-0.20;99.90
21037;DHT22;10677;50.942;4.028;2023-02-08T06:35:14;-0.20;99.90
21037;DHT22;10677;50.942;4.028;2023-02-08T06:37:39;-0.30;99.90
21037;DHT22;10677;50.942;4.028;2023-02-08T06:40:05;-0.40;99.90
21037;DHT22;10677;50.942;4.028;2023-02-08T06:42:31;-0.40;99.90
21037;DHT22;10677;50.942;4.028;2023-02-08T06:44:57;-0.40;99.90
21037;DHT22;10677;50.942;4.028;2023-02-08T06:47:24;-0.40;99.90
21037;DHT22;10677;50.942;4.028;2023-02-08T06:49:51;-0.30;99.90
21037;DHT22;10677;50.942;4.028;2023-02-08T06:52:17;-0.20;99.90
21037;DHT22;10677;50.942;4.028;2023-02-08T06:54:43;-0.10;99.90
21037;DHT22;10677;50.942;4.028;2023-02-08T06:57:10;-0.30;99.90
21037;DHT22;10677;50.942;4.028;2023-02-08T06:59:39;-0.30;99.90
21037;DHT22;10677;50.942;4.028;2023-02-08T07:02:05;-0.30;99.90
21037;DHT22;10677;50.942;4.028;2023-02-08T07:04:31;-0.30;99.90
21037;DHT22;10677;50.942;4.028;2023-02-08T07:06:57;-0.20;99.90
21037;DHT22;10677;50.942;4.028;2023-02-08T07:09:23;-0.20;99.90
21037;DHT22;10677;50.942;4.028;2023-02-08T07:11:48;-0.20;99.90
21037;DHT22;10677;50.942;4.028;2023-02-08T07:14:15;-0.20;99.90
21037;DHT22;10677;50.942;4.028;2023-02-08T07:16:41;-0.20;99.90
21037;DHT22;10677;50.942;4.028;2023-02-08T07:19:07;-0.20;99.90
21037;DHT22;10677;50.942;4.028;2023-02-08T07:21:33;-0.20;99.90
21037;DHT22;10677;50.942;4.028;2023-02-08T07:23:59;-0.20;99.90
21037;DHT22;10677;50.942;4.028;2023-02-08T07:26:24;-0.20;99.90
21037;DHT22;10677;50.942;4.028;2023-02-08T07:28:50;-0.20;99.90
21037;DHT22;10677;50.942;4.028;2023-02-08T07:31:16;-0.20;99.90
21037;DHT22;10677;50.942;4.028;2023-02-08T07:33:43;-0.10;99.90
21037;DHT22;10677;50.942;4.028;2023-02-08T07:36:10;-0.10;99.90
21037;DHT22;10677;50.942;4.028;2023-02-08T07:38:37;-0.10;99.90
21037;DHT22;10677;50.942;4.028;2023-02-08T07:41:10;-0.10;99.90
21037;DHT22;10677;50.942;4.028;2023-02-08T07:43:39;-0.10;99.90
21037;DHT22;10677;50.942;4.028;2023-02-08T07:46:15;-0.10;99.90
21037;DHT22;10677;50.942;4.028;2023-02-08T07:48:45;0.00;99.90
21037;DHT22;10677;50.942;4.028;2023-02-08T07:51:11;0.10;99.90
21037;DHT22;10677;50.942;4.028;2023-02-08T07:53:37;0.20;99.90
21037;DHT22;10677;50.942;4.028;2023-02-08T07:56:04;0.20;99.90
21037;DHT22;10677;50.942;4.028;2023-02-08T07:58:30;0.30;99.90
21037;DHT22;10677;50.942;4.028;2023-02-08T08:00:57;0.30;99.90
21037;DHT22;10677;50.942;4.028;2023-02-08T08:03:23;0.40;99.90
21037;DHT22;10677;50.942;4.028;2023-02-08T08:05:50;0.40;99.90
21037;DHT22;10677;50.942;4.028;2023-02-08T08:08:16;0.40;99.90
21037;DHT22;10677;50.942;4.028;2023-02-08T08:10:42;0.40;99.90
21037;DHT22;10677;50.942;4.028;2023-02-08T08:13:07;0.50;99.90
21037;DHT22;10677;50.942;4.028;2023-02-08T08:15:33;0.50;99.90
21037;DHT22;10677;50.942;4.028;2023-02-08T08:17:59;0.40;99.90
21037;DHT22;10677;50.942;4.028;2023-02-08T08:20:25;0.40;99.90
21037;DHT22;10677;50.942;4.028;2023-02-08T08:22:53;0.30;99.90
21037;DHT22;10677;50.942;4.028;2023-02-08T08:25:19;0.30;99.90
21037;DHT22;10677;50.942;4.028;2023-02-08T08:27:45;0.40;99.90
21037;DHT22;10677;50.942;4.028;2023-02-08T08:30:14;0.40;99.90
21037;DHT22;10677;50.942;4.028;2023-02-08T08:32:44;0.40;99.90
21037;DHT22;10677;50.942;4.028;2023-02-08T08:35:10;0.50;99.90
21037;DHT22;10677;50.942;4.028;2023-02-08T08:37:36;0.50;99.90
21037;DHT22;10677;50.942;4.028;2023-02-08T08:40:03;0.60;99.90
21037;DHT22;10677;50.942;4.028;2023-02-08T08:42:29;0.70;99.90
21037;DHT22;10677;50.942;4.028;2023-02-08T08:44:55;0.80;99.90
21037;DHT22;10677;50.942;4.028;2023-02-08T08:47:20;0.90;99.90
21037;DHT22;10677;50.942;4.028;2023-02-08T08:49:46;1.00;99.90
21037;DHT22;10677;50.942;4.028;2023-02-08T08:52:13;1.00;99.90
21037;DHT22;10677;50.942;4.028;2023-02-08T08:54:39;1.20;99.90
21037;DHT22;10677;50.942;4.028;2023-02-08T08:57:05;1.40;99.90
21037;DHT22;10677;50.942;4.028;2023-02-08T08:59:32;1.50;99.90
21037;DHT22;10677;50.942;4.028;2023-02-08T09:02:00;1.60;99.90
21037;DHT22;10677;50.942;4.028;2023-02-08T09:04:26;1.70;99.90
21037;DHT22;10677;50.942;4.028;2023-02-08T09:07:26;1.70;99.90
21037;DHT22;10677;50.942;4.028;2023-02-08T09:09:52;1.80;99.90
21037;DHT22;10677;50.942;4.028;2023-02-08T09:12:18;1.90;99.90
21037;DHT22;10677;50.942;4.028;2023-02-08T09:14:43;1.90;99.90
21037;DHT22;10677;50.942;4.028;2023-02-08T09:17:10;2.00;99.90
21037;DHT22;10677;50.942;4.028;2023-02-08T09:19:36;2.10;99.90
21037;DHT22;10677;50.942;4.028;2023-02-08T09:22:04;2.20;99.90
21037;DHT22;10677;50.942;4.028;2023-02-08T09:24:30;2.20;99.90
21037;DHT22;10677;50.942;4.028;2023-02-08T09:26:57;2.20;99.90
21037;DHT22;10677;50.942;4.028;2023-02-08T09:29:23;2.20;99.90
21037;DHT22;10677;50.942;4.028;2023-02-08T09:31:49;2.40;99.90
21037;DHT22;10677;50.942;4.028;2023-02-08T09:34:15;2.50;99.90
21037;DHT22;10677;50.942;4.028;2023-02-08T09:36:42;2.60;99.90
21037;DHT22;10677;50.942;4.028;2023-02-08T09:39:14;2.70;99.90
21037;DHT22;10677;50.942;4.028;2023-02-08T09:47:36;2.80;99.90
21037;DHT22;10677;50.942;4.028;2023-02-08T09:50:16;3.00;99.90
21037;DHT22;10677;50.942;4.028;2023-02-08T09:55:26;3.20;99.90
21037;DHT22;10677;50.942;4.028;2023-02-08T09:57:54;3.30;99.90
21037;DHT22;10677;50.942;4.028;2023-02-08T10:00:48;3.50;99.90
21037;DHT22;10677;50.942;4.028;2023-02-08T10:03:41;3.60;99.90
21037;DHT22;10677;50.942;4.028;2023-02-08T10:06:14;3.80;99.90
21037;DHT22;10677;50.942;4.028;2023-02-08T10:08:43;3.80;99.90
21037;DHT22;10677;50.942;4.028;2023-02-08T10:17:26;4.30;99.90
21037;DHT22;10677;50.942;4.028;2023-02-08T10:20:16;4.40;99.90
21037;DHT22;10677;50.942;4.028;2023-02-08T10:26:05;4.50;99.90
21037;DHT22;10677;50.942;4.028;2023-02-08T10:39:54;4.80;99.90
21037;DHT22;10677;50.942;4.028;2023-02-08T10:42:21;5.20;99.90
21037;DHT22;10677;50.942;4.028;2023-02-08T10:45:03;5.30;99.90
21037;DHT22;10677;50.942;4.028;2023-02-08T10:47:43;5.20;99.90
21037;DHT22;10677;50.942;4.028;2023-02-08T10:50:42;5.30;99.90
21037;DHT22;10677;50.942;4.028;2023-02-08T10:53:16;5.40;99.90
21037;DHT22;10677;50.942;4.028;2023-02-08T10:55:48;5.50;99.90
21037;DHT22;10677;50.942;4.028;2023-02-08T10:58:23;5.70;99.90
21037;DHT22;10677;50.942;4.028;2023-02-08T11:00:51;5.70;99.90
21037;DHT22;10677;50.942;4.028;2023-02-08T11:03:25;5.80;99.90
21037;DHT22;10677;50.942;4.028;2023-02-08T11:05:51;5.80;99.90
21037;DHT22;10677;50.942;4.028;2023-02-08T11:11:24;5.90;99.90
21037;DHT22;10677;50.942;4.028;2023-02-08T11:14:08;6.20;99.90
21037;DHT22;10677;50.942;4.028;2023-02-08T11:16:34;6.30;99.90
21037;DHT22;10677;50.942;4.028;2023-02-08T11:19:01;6.40;99.90
21037;DHT22;10677;50.942;4.028;2023-02-08T11:21:36;6.50;99.90
21037;DHT22;10677;50.942;4.028;2023-02-08T11:26:39;6.70;99.90
21037;DHT22;10677;50.942;4.028;2023-02-08T11:31:41;6.70;99.90
21037;DHT22;10677;50.942;4.028;2023-02-08T11:34:39;6.70;99.90
21037;DHT22;10677;50.942;4.028;2023-02-08T11:37:19;6.60;99.90
21037;DHT22;10677;50.942;4.028;2023-02-08T11:39:53;6.80;99.90
21037;DHT22;10677;50.942;4.028;2023-02-08T11:42:40;7.00;99.90
21037;DHT22;10677;50.942;4.028;2023-02-08T11:45:15;7.00;99.90
21037;DHT22;10677;50.942;4.028;2023-02-08T11:47:46;7.00;99.90
21037;DHT22;10677;50.942;4.028;2023-02-08T11:50:29;7.30;99.90
21037;DHT22;10677;50.942;4.028;2023-02-08T11:53:20;7.50;99.90
21037;DHT22;10677;50.942;4.028;2023-02-08T11:58:41;7.70;99.90
21037;DHT22;10677;50.942;4.028;2023-02-08T12:01:20;7.90;99.90
21037;DHT22;10677;50.942;4.028;2023-02-08T12:03:47;8.10;99.90
21037;DHT22;10677;50.942;4.028;2023-02-08T12:15:38;8.10;99.90
21037;DHT22;10677;50.942;4.028;2023-02-08T12:20:59;8.30;99.90
21037;DHT22;10677;50.942;4.028;2023-02-08T12:23:49;8.30;99.90
21037;DHT22;10677;50.942;4.028;2023-02-08T12:29:18;8.60;99.90
21037;DHT22;10677;50.942;4.028;2023-02-08T12:31:59;8.60;99.90
21037;DHT22;10677;50.942;4.028;2023-02-08T12:37:24;8.40;99.90
21037;DHT22;10677;50.942;4.028;2023-02-08T12:43:40;8.70;99.90
21037;DHT22;10677;50.942;4.028;2023-02-08T12:46:39;8.80;99.80
21037;DHT22;10677;50.942;4.028;2023-02-08T12:52:08;8.80;99.90
21037;DHT22;10677;50.942;4.028;2023-02-08T12:54:47;8.80;99.90
21037;DHT22;10677;50.942;4.028;2023-02-08T12:57:16;8.70;99.90
21037;DHT22;10677;50.942;4.028;2023-02-08T13:02:22;8.60;99.90
21037;DHT22;10677;50.942;4.028;2023-02-08T13:04:52;8.60;99.90
21037;DHT22;10677;50.942;4.028;2023-02-08T13:07:26;8.60;99.90
21037;DHT22;10677;50.942;4.028;2023-02-08T13:12:55;9.00;99.70
21037;DHT22;10677;50.942;4.028;2023-02-08T13:15:24;8.90;99.70
21037;DHT22;10677;50.942;4.028;2023-02-08T13:17:58;8.70;99.90
21037;DHT22;10677;50.942;4.028;2023-02-08T13:23:39;9.00;99.30
21037;DHT22;10677;50.942;4.028;2023-02-08T13:26:27;8.90;99.90
21037;DHT22;10677;50.942;4.028;2023-02-08T13:28:59;8.90;99.90
21037;DHT22;10677;50.942;4.028;2023-02-08T13:31:48;9.00;99.90
21037;DHT22;10677;50.942;4.028;2023-02-08T13:36:59;9.10;99.90
21037;DHT22;10677;50.942;4.028;2023-02-08T13:39:35;9.00;99.90
21037;DHT22;10677;50.942;4.028;2023-02-08T13:42:03;8.70;99.90
21037;DHT22;10677;50.942;4.028;2023-02-08T13:44:37;8.70;99.90
21037;DHT22;10677;50.942;4.028;2023-02-08T13:47:05;9.00;99.50
21037;DHT22;10677;50.942;4.028;2023-02-08T13:49:54;9.30;98.90
21037;DHT22;10677;50.942;4.028;2023-02-08T14:05:51;9.40;98.90
21037;DHT22;10677;50.942;4.028;2023-02-08T14:11:14;9.00;99.80
21037;DHT22;10677;50.942;4.028;2023-02-08T14:14:03;9.20;99.00
21037;DHT22;10677;50.942;4.028;2023-02-08T14:16:34;9.30;98.50
21037;DHT22;10677;50.942;4.028;2023-02-08T14:19:19;9.20;97.20
21037;DHT22;10677;50.942;4.028;2023-02-08T14:24:32;9.40;95.60
21037;DHT22;10677;50.942;4.028;2023-02-08T14:32:31;9.40;96.00
21037;DHT22;10677;50.942;4.028;2023-02-08T14:35:17;9.70;95.60
21037;DHT22;10677;50.942;4.028;2023-02-08T14:37:45;10.20;94.60
21037;DHT22;10677;50.942;4.028;2023-02-08T14:45:35;12.20;93.60
21037;DHT22;10677;50.942;4.028;2023-02-08T14:48:17;12.90;92.30
21037;DHT22;10677;50.942;4.028;2023-02-08T14:53:28;13.80;90.50
21037;DHT22;10677;50.942;4.028;2023-02-08T14:56:04;14.60;89.10
21037;DHT22;10677;50.942;4.028;2023-02-08T14:58:34;15.70;86.60
21037;DHT22;10677;50.942;4.028;2023-02-08T15:01:05;15.80;84.40
21037;DHT22;10677;50.942;4.028;2023-02-08T15:03:32;15.60;81.90
21037;DHT22;10677;50.942;4.028;2023-02-08T15:09:00;15.90;80.80
21037;DHT22;10677;50.942;4.028;2023-02-08T15:11:29;16.10;80.80
21037;DHT22;10677;50.942;4.028;2023-02-08T15:13:57;17.40;78.20
21037;DHT22;10677;50.942;4.028;2023-02-08T15:16:39;18.00;76.00
21037;DHT22;10677;50.942;4.028;2023-02-08T15:19:07;18.20;75.70
21037;DHT22;10677;50.942;4.028;2023-02-08T15:21:34;17.60;78.20
21037;DHT22;10677;50.942;4.028;2023-02-08T15:24:19;17.90;78.30
21037;DHT22;10677;50.942;4.028;2023-02-08T15:26:52;17.50;78.70
21037;DHT22;10677;50.942;4.028;2023-02-08T15:29:23;16.90;79.30
21037;DHT22;10677;50.942;4.028;2023-02-08T15:31:49;17.00;80.40
21037;DHT22;10677;50.942;4.028;2023-02-08T15:34:16;17.40;79.40
21037;DHT22;10677;50.942;4.028;2023-02-08T15:36:49;18.40;80.00
21037;DHT22;10677;50.942;4.028;2023-02-08T15:39:35;19.00;78.00
21037;DHT22;10677;50.942;4.028;2023-02-08T15:42:03;19.70;76.00
21037;DHT22;10677;50.942;4.028;2023-02-08T15:44:33;20.20;75.10
21037;DHT22;10677;50.942;4.028;2023-02-08T15:47:04;20.50;73.70
21037;DHT22;10677;50.942;4.028;2023-02-08T15:49:39;20.50;72.50
21037;DHT22;10677;50.942;4.028;2023-02-08T15:52:06;20.60;72.20
21037;DHT22;10677;50.942;4.028;2023-02-08T15:54:33;20.70;71.90
21037;DHT22;10677;50.942;4.028;2023-02-08T15:57:18;20.70;71.50
21037;DHT22;10677;50.942;4.028;2023-02-08T15:59:46;20.50;71.40
21037;DHT22;10677;50.942;4.028;2023-02-08T16:02:28;20.20;70.90
21037;DHT22;10677;50.942;4.028;2023-02-08T16:04:56;18.80;71.80
21037;DHT22;10677;50.942;4.028;2023-02-08T16:07:36;17.10;73.80
21037;DHT22;10677;50.942;4.028;2023-02-08T16:10:03;15.30;76.10
21037;DHT22;10677;50.942;4.028;2023-02-08T16:12:30;14.10;79.20
21037;DHT22;10677;50.942;4.028;2023-02-08T16:14:56;13.20;81.40
21037;DHT22;10677;50.942;4.028;2023-02-08T16:17:32;12.40;82.70
21037;DHT22;10677;50.942;4.028;2023-02-08T16:20:00;11.80;85.00
21037;DHT22;10677;50.942;4.028;2023-02-08T16:22:31;11.30;87.80
21037;DHT22;10677;50.942;4.028;2023-02-08T16:25:23;10.80;88.40
21037;DHT22;10677;50.942;4.028;2023-02-08T16:27:49;10.50;90.00
21037;DHT22;10677;50.942;4.028;2023-02-08T16:30:19;10.40;90.60
21037;DHT22;10677;50.942;4.028;2023-02-08T16:32:45;10.10;91.10
21037;DHT22;10677;50.942;4.028;2023-02-08T16:35:13;9.80;91.60
21037;DHT22;10677;50.942;4.028;2023-02-08T16:37:39;9.60;92.50
21037;DHT22;10677;50.942;4.028;2023-02-08T16:45:39;9.00;95.10
21037;DHT22;10677;50.942;4.028;2023-02-08T16:48:25;8.80;96.30
21037;DHT22;10677;50.942;4.028;2023-02-08T16:50:51;8.60;97.40
21037;DHT22;10677;50.942;4.028;2023-02-08T16:53:17;8.40;98.40
21037;DHT22;10677;50.942;4.028;2023-02-08T16:55:42;8.30;99.30
21037;DHT22;10677;50.942;4.028;2023-02-08T16:58:13;8.20;99.90
21037;DHT22;10677;50.942;4.028;2023-02-08T17:00:40;8.10;99.90
21037;DHT22;10677;50.942;4.028;2023-02-08T17:03:05;8.00;99.90
21037;DHT22;10677;50.942;4.028;2023-02-08T17:05:35;7.90;99.90
21037;DHT22;10677;50.942;4.028;2023-02-08T17:08:03;7.80;99.90
21037;DHT22;10677;50.942;4.028;2023-02-08T17:10:32;7.90;99.90
21037;DHT22;10677;50.942;4.028;2023-02-08T17:12:59;7.80;99.90
21037;DHT22;10677;50.942;4.028;2023-02-08T17:15:26;7.80;99.90
21037;DHT22;10677;50.942;4.028;2023-02-08T17:17:52;7.70;99.90
21037;DHT22;10677;50.942;4.028;2023-02-08T17:20:33;7.60;99.90
21037;DHT22;10677;50.942;4.028;2023-02-08T17:23:01;7.50;99.90
21037;DHT22;10677;50.942;4.028;2023-02-08T17:25:28;7.60;99.90
21037;DHT22;10677;50.942;4.028;2023-02-08T17:28:00;7.50;99.90
21037;DHT22;10677;50.942;4.028;2023-02-08T17:30:38;7.40;99.90
21037;DHT22;10677;50.942;4.028;2023-02-08T17:33:05;7.30;99.90
21037;DHT22;10677;50.942;4.028;2023-02-08T17:35:32;7.20;99.90
21037;DHT22;10677;50.942;4.028;2023-02-08T17:37:58;7.20;99.90
21037;DHT22;10677;50.942;4.028;2023-02-08T17:40:27;7.20;99.90
21037;DHT22;10677;50.942;4.028;2023-02-08T17:42:57;7.00;99.90
21037;DHT22;10677;50.942;4.028;2023-02-08T17:45:23;7.00;99.90
21037;DHT22;10677;50.942;4.028;2023-02-08T17:47:48;6.90;99.90
21037;DHT22;10677;50.942;4.028;2023-02-08T17:50:16;6.90;99.90
21037;DHT22;10677;50.942;4.028;2023-02-08T17:52:42;6.80;99.90
21037;DHT22;10677;50.942;4.028;2023-02-08T17:55:10;6.80;99.90
21037;DHT22;10677;50.942;4.028;2023-02-08T17:57:37;6.90;99.90
21037;DHT22;10677;50.942;4.028;2023-02-08T18:00:10;7.00;99.90
21037;DHT22;10677;50.942;4.028;2023-02-08T18:02:37;7.00;99.90
21037;DHT22;10677;50.942;4.028;2023-02-08T18:05:07;6.90;99.90
21037;DHT22;10677;50.942;4.028;2023-02-08T18:07:32;6.80;99.90
21037;DHT22;10677;50.942;4.028;2023-02-08T18:09:58;6.70;99.90
21037;DHT22;10677;50.942;4.028;2023-02-08T18:12:23;6.60;99.90
21037;DHT22;10677;50.942;4.028;2023-02-08T18:14:49;6.50;99.90
21037;DHT22;10677;50.942;4.028;2023-02-08T18:17:15;6.40;99.90
21037;DHT22;10677;50.942;4.028;2023-02-08T18:19:40;6.30;99.90
21037;DHT22;10677;50.942;4.028;2023-02-08T18:22:06;6.20;99.90
21037;DHT22;10677;50.942;4.028;2023-02-08T18:24:33;6.10;99.90
21037;DHT22;10677;50.942;4.028;2023-02-08T18:26:58;6.00;99.90
21037;DHT22;10677;50.942;4.028;2023-02-08T18:29:24;6.00;99.90
21037;DHT22;10677;50.942;4.028;2023-02-08T18:31:50;6.10;99.90
21037;DHT22;10677;50.942;4.028;2023-02-08T18:34:17;6.20;99.90
21037;DHT22;10677;50.942;4.028;2023-02-08T18:36:43;6.20;99.90
21037;DHT22;10677;50.942;4.028;2023-02-08T18:39:11;6.00;99.90